Percy, Illinois
Current Conditions -  °F | °C
As of 10:15 AM on Thursday 23 Oct 2014 (Local Time) from KSAR Reporting Station
Clear Clear  
Wind Chill: 51°   Ceiling: Unl
Heat Index: 51°   Visibility: 10mi
Dew Point: 44°   Wind: 5mph
Humidity: 78%   Direction: 160°SSE
Pressure: 30.25"   Gusts: NA
Location:  38.02°N, 89.62°W
Report Text: KSAR 231515Z AUTO 16004KT 10SM CLR 11/07 A3025 RMK AO2 T01050069
Loading
Personal Weather Stations






























Interactive Weather Map
Tropical Storm Tracking
New forecast layout! Learn more

10-Day Weather Forecast

Advertisements
Track Severe Weather on mobile